SKCC/CUC METAR and TAF weather

Enter ICAO airport designator
Station Type Date Time Source
SKCC METAR 2020/09/27 23:00 UTC NOAA

SKCC 272300Z 33010KT 9999 FEW020 SCT200 30/21 A2981


Station Type Date Time Source
SKCC Decoded METAR 2020/09/27 23:00 UTC NOAA

Cucuta / Camilo Daza, Colombia (SKCC) 07-56N 072-31W 317M
Sep 27, 2020 - 07:00 PM EDT / 2020.09.27 2300 UTC
Wind: from the NNW (330 degrees) at 12 MPH (10 KT):0
Sky conditions: partly cloudy
Temperature: 86 F (30 C)
Dew Point: 69 F (21 C)
Relative Humidity: 58%
Pressure (altimeter): 29.81 in. Hg (1009 hPa)
ob: SKCC 272300Z 33010KT 9999 FEW020 SCT200 30/21 A2981
cycle: 23

Station Type Date Time Source
SKCC TAF 2020/09/28 06:45 UTC NOAA

TAF TAF SKCC 280430Z 2806/2906 VRB02KT 9999 SCT015 SCT090
TEMPO 2809/2812 5000 BR SCT010
BECMG 2812/2814 16012KT PROB40
TEMPO 2821/2824 TS SCT015CB
BECMG 2901/2903 VRB02KT TX35/2819Z TN23/2811Z

Example: see airport list